logo
App data

Ways of History

Hardcore real-time strategy with a long-term round. Development of your civilization from caves to space. Huge world. Thousands of players. 240+ sciences and technologies. About 100 troops. 4 races. 50+ resource deposits. War, trade, science, construction...
Store | Hub | SteamDB
Developer: Glyph Worlds Publisher: Glyph Worlds
Genre: Free to Play, Indie, Massively Multiplayer, Strategy
Languages: English, German, Russian
Tags: Free to Play (49), Strategy (47), Massively Multiplayer (37), Indie (29), Multiplayer (9)
Category: Multi-player, Online Multi-Player, MMO, Co-op, Online Co-op, Cross-Platform Multiplayer, Steam Trading Cards, In-App Purchases, Steam Cloud
Release date: Sep 1, 2017 (previously in Early Access)
Free
Score rank: 9% Userscore: 47% Old userscore: 47%
Owners: 50,000 .. 100,000
Peak concurrent players yesterday: 62
Playtime total: 49:18 (average) 00:06 (median)

Steam Spy is still in beta, so expect major bugs.

Owners data:

Access restricted.

This feature is only available to users with special access rights. Sorry.

If you want to proceed, you need to register or log in first and then back Steam Spy on Patreon. Look for Indie or Pro pledge.

Don't forget to use the same email as on Steam Spy!

Audience in 2 weeks:

Access restricted.

This feature is only available to users with special access rights. Sorry.

If you want to proceed, you need to register or log in first and then back Steam Spy on Patreon. Look for Indie or Pro pledge.

Don't forget to use the same email as on Steam Spy!

Peak daily concurrent players:

CCU data courtesy of SteamDB. Used with permission.

Hourly concurrent players:

YouTube:

The views data is based on top 50 videos uploaded last week. Actual number of views might be more than the number shown.

The displayed number of videos uploaded yesterday is limited to 50, so if there were more videos uploaded, the number will still show 50.

If the game has commonly used word as its name (like "FEAR" or "Volume") its number of Youtube views might be wrong.

Games similar to this one:

# Game Release date
Price
Score rank
(Userscore / Metascore)
Owners
Players
Playtime (Median)
1 Pocket Kingdom Dec 8, 2016 $6.99100% (100%)0 .. 20,0000%00:00 (00:00)
2 Z-Exemplar Nov 25, 2016 $4.99N/A (N/A)0 .. 20,0000%00:00 (00:00)
3 The Sea Will Claim Everything Mar 24, 2016 $9.9997% (97%)0 .. 20,0000%00:00 (00:00)
4 In the Raven Shadow – Ve stínu havrana Jul 11, 2017 $3.99N/A (N/A)0 .. 20,0000%00:00 (00:00)
5 The Lonesome Fog Mar 24, 2016 $4.99N/A (N/A)0 .. 20,0000%00:00 (00:00)
6 Cosmic Sugar VR Nov 30, 2016 Free93% (95%)50,000 .. 100,0002.5%00:05 (00:01)
7 OLDTV Jul 14, 2017 Free93% (95%)200,000 .. 500,0001.92%00:38 (00:50)
8 Ballads of Reemus: When the Bed Bites Jan 27, 2012 $4.99N/A (N/A)0 .. 20,0000%00:00 (00:00)
9 Brighter Day Jul 17, 2015 $2.99N/A (N/A)0 .. 20,0000%00:00 (00:00)
10 Pan-Pan Aug 25, 2016 $12.9983% (92%)0 .. 20,0000%00:00 (00:00)
11 Dragon Age: Origins Awakening Mar 16, 2010 $9.9983% (92%/82%)100,000 .. 200,0000%00:00 (00:00)
12 Thread Studio Sep 29, 2016 FreeN/A (N/A)0 .. 20,0000%00:00 (00:00)
13 Cubixx HD Jan 28, 2016 $8.99N/A (N/A)0 .. 20,0000%00:00 (00:00)
14 Viridi Aug 19, 2015 Free76% (90%/46%)500,000 .. 1,000,0001.82%01:00 (01:15)
15 Party Jousting Mar 1, 2016 Free76% (90%)100,000 .. 200,0000%00:00 (00:00)
16 You Have 10 Seconds Jul 14, 2016 Free76% (90%)200,000 .. 500,0000.58%00:02 (00:00)
17 Black Ink Feb 8, 2016 $59.9973% (89%)20,000 .. 50,0000%00:00 (00:00)
18 Pilot Brothers 2 Dec 31, 2014 $4.99N/A (N/A)0 .. 20,0000%00:00 (00:00)
19 Nimble Writer Apr 21, 2015 $9.9968% (87%)0 .. 20,0006.67%01:51 (00:37)
20 Jacob Jones and the Bigfoot Mystery : Episode 2 Sep 23, 2014 $3.99N/A (N/A)0 .. 20,0000%00:00 (00:00)
21 VR Gallery Aug 11, 2016 FreeN/A (N/A)20,000 .. 50,0000%00:00 (00:00)
22 SOLITUNE Nov 20, 2016 $1.99N/A (N/A)0 .. 20,00022.22%02:47 (01:55)
23 The Journey Back Aug 12, 2015 $1.99N/A (N/A)0 .. 20,0000%00:00 (00:00)
24 SVRVIVE: The Deus Helix Nov 17, 2016 $18.9953% (81%)0 .. 20,0000%00:00 (00:00)
25 Call of Cthulhu: Shadow of the Comet Jan 1, 1993 $5.99N/A (N/A)0 .. 20,0000%00:00 (00:00)
26 Foxhole Jul 27, 2017 $19.9951% (80%)100,000 .. 200,0005.26%08:23 (16:33)
27 Fences Mar 29, 2017 $9.9948% (79%)20,000 .. 50,00027.27%00:01 (00:01)
28 Just Ignore Them Apr 28, 2017 $3.9943% (76%)0 .. 20,0000%00:00 (00:00)
29 Ambre - a heartbreaking kinetic novel Jun 9, 2017 Free43% (76%)20,000 .. 50,0000%00:00 (00:00)
30 Tony Tough and the Night of Roasted Moths Dec 1, 1997 $9.99N/A (N/A/68%)0 .. 20,0000%00:00 (00:00)
31 IKEA VR Experience Apr 5, 2016 Free39% (74%)100,000 .. 200,0000%00:00 (00:00)
32 Mausoleum of the Medusa Oct 27, 2016 Free39% (74%)0 .. 20,0000%00:00 (00:00)
33 Call of Cthulhu: Prisoner of Ice Jan 1, 1995 $5.99N/A (N/A)0 .. 20,0000%00:00 (00:00)
34 Wild Warfare Jul 15, 2014 N/A32% (70%)200,000 .. 500,0000%00:00 (00:00)
35 The Revenge of Johnny Bonasera: Episode 1 Nov 1, 2016 $3.99N/A (N/A)0 .. 20,0000%00:00 (00:00)
36 The Morgue Fissure Between Worlds Mar 31, 2017 $0.99N/A (N/A)0 .. 20,0000%00:00 (00:00)
37 CGWallpapers Nov 30, 2016 $4.99N/A (N/A)0 .. 20,0005.26%00:05 (00:01)
38 Clown2Beat Oct 26, 2016 FreeN/A (N/A)0 .. 20,0000%00:00 (00:00)
39 Lands of Hope Redemption Jun 8, 2014 $1.99N/A (N/A)0 .. 20,0000%00:00 (00:00)
40 Unhappy Ever After Jan 20, 2017 $0.99N/A (N/A)0 .. 20,0000%00:00 (00:00)
41 Elminage Gothic Sep 18, 2014 $9.9922% (62%)0 .. 20,0000%00:00 (00:00)
42 The Big Secret of a Small Town Mar 2, 2015 $6.9920% (61%)0 .. 20,0000%00:00 (00:00)
43 Mystery Mine May 16, 2017 $3.9916% (57%)100,000 .. 200,0000.23%00:01 (00:00)
44 Pilot Brothers 3: Back Side of the Earth Jan 22, 2015 $4.99N/A (N/A)0 .. 20,0000%00:00 (00:00)
45 Torn Tales Jan 17, 2017 $12.99N/A (N/A)20,000 .. 50,0000%00:00 (00:00)
46 Escape The Lost Kingdom: The Forgotten Pharaoh Aug 6, 2010 $4.9915% (55%)0 .. 20,0000%00:00 (00:00)
47 Multiplayer FPS Demo Jul 6, 2017 Free14% (54%)50,000 .. 100,0000%00:00 (00:00)
48 Playing History: Vikings Jul 1, 2015 $2.99N/A (N/A)20,000 .. 50,0000%00:00 (00:00)
49 Fractasia Nov 17, 2016 FreeN/A (N/A)0 .. 20,0000%00:00 (00:00)
50 D.W.A.R.F.S. Oct 6, 2008 $5.99N/A (N/A)0 .. 20,0000%00:00 (00:00)
51 Black Island Oct 14, 2015 $2.99N/A (N/A)0 .. 20,0000%00:00 (00:00)
52 After Life - Story of a Father Nov 25, 2016 $5.99N/A (N/A)0 .. 20,0000%00:00 (00:00)
53 Bayou Island - Point and Click Adventure Feb 28, 2017 $1.99N/A (N/A)0 .. 20,0000%00:00 (00:00)
54 Astro Lords: Oort Cloud Jan 15, 2016 FreeN/A (N/A)50,000 .. 100,0000%00:00 (00:00)
55 De-Void Sep 2, 2016 $7.998% (45%)20,000 .. 50,0000%00:00 (00:00)
56 Maze Sounds Oct 3, 2016 $4.99N/A (N/A)0 .. 20,0000%00:00 (00:00)
57 Vault Cracker May 15, 2014 $4.99N/A (N/A)0 .. 20,0000%00:00 (00:00)
58 Ragnarok Journey Jun 12, 2017 Free5% (36%)50,000 .. 100,0002.94%00:01 (00:00)
59 iTownGamePlay UNIVERSE Sep 30, 2017 FreeN/A (N/A)20,000 .. 50,0000%00:00 (00:00)
60 BattleSpace Sep 27, 2013 N/A4% (32%)100,000 .. 200,0000%00:00 (00:00)
61 Haunted House: Cryptic Graves Nov 25, 2014 N/AN/A (N/A)0 .. 20,0000%00:00 (00:00)

Owners of this game also own:

Access restricted.

This feature is only available to users with special access rights. Sorry.

If you want to proceed, you need to register or log in first and then back Steam Spy on Patreon. Look for Indie or Pro pledge.

Don't forget to use the same email as on Steam Spy!

Playtime distribution:

Access restricted.

This feature is only available to users with special access rights. Sorry.

If you want to proceed, you need to register or log in first and then back Steam Spy on Patreon. Look for Indie or Pro pledge.

Don't forget to use the same email as on Steam Spy!

Playtime (2 weeks):

Access restricted.

This feature is only available to users with special access rights. Sorry.

If you want to proceed, you need to register or log in first and then back Steam Spy on Patreon. Look for Indie or Pro pledge.

Don't forget to use the same email as on Steam Spy!

User reviews:

Login required.

Please register or log in to see this information.